Time;durP1;ratioP1;P1;durP2;ratioP2;P2;SDS_P1;SDS_P2;PMS_P1;PMS_P2;Temp;Humidity;BMP_temperature;BMP_pressure;BME280_temperature;BME280_humidity;BME280_pressure;Samples;Min_cycle;Max_cycle;Signal;HPM_P1;HPM_P2
2022/12/14 00:00:54;;;;;;;55.63;26.08;;;-4.20;99.90;;;;;;4708978;28;9999836;-82
2022/12/14 00:03:20;;;;;;;60.55;28.38;;;-4.20;99.90;;;;;;5059782;28;20056;-82
2022/12/14 00:05:46;;;;;;;58.05;26.65;;;-4.20;99.90;;;;;;5059254;28;20023;-82
2022/12/14 00:08:13;;;;;;;55.72;25.48;;;-4.20;99.90;;;;;;5057313;28;20024;-82
2022/12/14 00:10:39;;;;;;;52.72;24.15;;;-4.30;99.90;;;;;;5059964;28;20032;-81
2022/12/14 00:13:06;;;;;;;50.78;24.27;;;-4.40;99.90;;;;;;5061787;28;20020;-81
2022/12/14 00:15:33;;;;;;;51.38;24.33;;;-4.60;99.90;;;;;;5050913;28;20040;-81
2022/12/14 00:17:59;;;;;;;55.85;25.08;;;-4.70;99.90;;;;;;5053361;28;20043;-82
2022/12/14 00:20:26;;;;;;;55.92;24.20;;;-4.80;99.90;;;;;;5061389;28;20580;-81
2022/12/14 00:22:54;;;;;;;53.97;24.25;;;-4.80;99.90;;;;;;5063324;28;20032;-80
2022/12/14 00:25:20;;;;;;;55.15;25.77;;;-4.90;99.90;;;;;;5058380;28;20016;-81
2022/12/14 00:27:45;;;;;;;61.60;27.15;;;-5.00;99.90;;;;;;5064464;28;20089;-81
2022/12/14 00:30:17;;;;;;;60.33;26.92;;;-5.00;99.90;;;;;;5064040;28;20451;-81
2022/12/14 00:32:43;;;;;;;60.45;26.15;;;-5.10;99.90;;;;;;5052259;28;20479;-81
2022/12/14 00:35:10;;;;;;;56.60;25.52;;;-5.10;99.90;;;;;;5049371;28;20032;-81
2022/12/14 00:37:37;;;;;;;55.08;25.25;;;-5.30;99.90;;;;;;5058322;28;20029;-81
2022/12/14 00:40:05;;;;;;;59.55;26.90;;;-5.30;99.90;;;;;;5056634;28;20025;-81
2022/12/14 00:42:31;;;;;;;54.22;25.17;;;-5.30;99.90;;;;;;5056090;28;20486;-81
2022/12/14 00:44:57;;;;;;;54.58;24.77;;;-5.40;99.90;;;;;;5064112;28;20089;-81
2022/12/14 00:47:22;;;;;;;58.45;26.42;;;-5.40;99.90;;;;;;5081233;28;20055;-81
2022/12/14 00:49:48;;;;;;;58.13;25.52;;;-5.40;99.90;;;;;;5071547;28;20028;-80
2022/12/14 00:52:13;;;;;;;58.38;26.08;;;-5.20;99.90;;;;;;5071276;28;20485;-80
2022/12/14 00:54:39;;;;;;;62.03;27.00;;;-5.00;99.90;;;;;;5072290;28;20030;-81
2022/12/14 00:57:05;;;;;;;61.95;26.88;;;-4.80;99.90;;;;;;5072566;28;20066;-80
2022/12/14 00:59:31;;;;;;;57.55;26.70;;;-4.60;99.90;;;;;;5069757;28;20803;-80
2022/12/14 01:01:56;;;;;;;57.40;25.58;;;-4.40;99.90;;;;;;5070818;28;20075;-81
2022/12/14 01:04:23;;;;;;;58.95;25.25;;;-4.40;99.90;;;;;;5071800;28;20028;-81
2022/12/14 01:06:50;;;;;;;56.75;25.45;;;-4.50;99.90;;;;;;5070392;28;20039;-81
2022/12/14 01:09:17;;;;;;;56.80;26.15;;;-4.40;99.90;;;;;;5074528;28;20725;-81
2022/12/14 01:11:44;;;;;;;58.13;25.73;;;-4.40;99.90;;;;;;5078780;28;20127;-81
2022/12/14 01:14:11;;;;;;;57.50;27.20;;;-4.30;99.90;;;;;;5068931;28;20024;-81
2022/12/14 01:16:37;;;;;;;54.65;25.00;;;-4.30;99.90;;;;;;5074711;28;20033;-80
2022/12/14 01:19:03;;;;;;;60.15;26.70;;;-4.40;99.90;;;;;;5072122;28;20101;-81
2022/12/14 01:21:29;;;;;;;61.45;28.05;;;-4.40;99.90;;;;;;5073304;28;20032;-81
2022/12/14 01:23:57;;;;;;;64.60;29.88;;;-4.30;99.90;;;;;;5068167;28;20046;-81
2022/12/14 01:26:25;;;;;;;69.10;30.73;;;-4.30;99.90;;;;;;5076686;28;20035;-80
2022/12/14 01:28:57;;;;;;;74.40;31.55;;;-4.20;99.90;;;;;;5069341;28;20028;-81
2022/12/14 01:31:26;;;;;;;78.60;31.77;;;-4.20;99.90;;;;;;5075809;28;20089;-81
2022/12/14 01:33:52;;;;;;;73.93;32.03;;;-4.10;99.90;;;;;;5071004;28;20935;-81
2022/12/14 01:36:21;;;;;;;74.28;32.45;;;-4.10;99.90;;;;;;5073129;28;20044;-81
2022/12/14 01:38:51;;;;;;;76.28;33.33;;;-4.00;99.90;;;;;;5070409;28;20047;-81
2022/12/14 01:41:24;;;;;;;77.13;33.20;;;-4.00;99.90;;;;;;5070878;28;21632;-81
2022/12/14 01:43:59;;;;;;;69.70;30.10;;;-4.00;99.90;;;;;;5070636;28;20020;-80
2022/12/14 01:46:42;;;;;;;76.97;32.22;;;-4.10;99.90;;;;;;5078566;28;20043;-81
2022/12/14 01:49:24;;;;;;;68.07;30.27;;;-4.30;99.90;;;;;;5081423;28;20495;-80
2022/12/14 01:52:13;;;;;;;71.28;30.40;;;-4.50;99.90;;;;;;5077248;28;20035;-81
2022/12/14 01:54:44;;;;;;;69.82;28.95;;;-4.60;99.90;;;;;;5080019;28;20051;-81
2022/12/14 01:57:12;;;;;;;62.08;27.35;;;-4.70;99.90;;;;;;5074727;28;20740;-80
2022/12/14 01:59:42;;;;;;;67.05;29.45;;;-4.80;99.90;;;;;;5084340;28;20028;-80
2022/12/14 02:02:10;;;;;;;73.25;30.75;;;-5.00;99.90;;;;;;5066030;28;20039;-80
2022/12/14 02:04:40;;;;;;;65.13;28.20;;;-5.00;99.90;;;;;;5081329;28;20035;-80
2022/12/14 02:07:07;;;;;;;63.15;27.35;;;-5.00;99.90;;;;;;5080189;28;20181;-80
2022/12/14 02:09:36;;;;;;;66.97;28.88;;;-5.00;99.90;;;;;;5081798;28;20059;-80
2022/12/14 02:12:08;;;;;;;62.30;27.17;;;-4.90;99.90;;;;;;5071984;28;20082;-80
2022/12/14 02:14:34;;;;;;;45.90;19.57;;;-5.00;99.90;;;;;;5080436;28;20513;-80
2022/12/14 02:17:01;;;;;;;56.17;24.48;;;-5.00;99.90;;;;;;5081048;28;20266;-79
2022/12/14 02:19:27;;;;;;;50.28;21.77;;;-4.90;99.90;;;;;;5079961;28;20383;-80
2022/12/14 02:22:11;;;;;;;48.72;20.30;;;-4.90;99.90;;;;;;5084743;28;20441;-80
2022/12/14 02:24:37;;;;;;;51.20;22.15;;;-4.80;99.90;;;;;;5082305;28;20032;-80
2022/12/14 02:27:18;;;;;;;43.00;19.73;;;-4.80;99.90;;;;;;5084852;28;20042;-80
2022/12/14 02:30:23;;;;;;;47.33;21.38;;;-4.90;99.90;;;;;;5080027;28;20115;-80
2022/12/14 02:33:24;;;;;;;63.10;27.00;;;-4.90;99.90;;;;;;5005691;28;20041;-80
2022/12/14 02:36:01;;;;;;;64.03;26.10;;;-4.90;99.90;;;;;;5002114;28;20026;-79
2022/12/14 02:38:41;;;;;;;60.33;26.83;;;-5.00;99.90;;;;;;5069321;28;20411;-80
2022/12/14 02:41:13;;;;;;;59.05;26.70;;;-5.20;99.90;;;;;;5078548;28;20089;-80
2022/12/14 02:44:08;;;;;;;58.88;24.77;;;-5.30;99.90;;;;;;5072476;28;20039;-80
2022/12/14 02:46:40;;;;;;;56.83;25.08;;;-5.40;99.90;;;;;;5077832;28;20028;-81
2022/12/14 02:49:31;;;;;;;45.87;19.37;;;-5.50;99.90;;;;;;5076911;28;20217;-80
2022/12/14 02:52:08;;;;;;;54.33;23.85;;;-5.50;99.90;;;;;;5070797;28;20038;-80
2022/12/14 02:55:10;;;;;;;57.85;25.25;;;-5.50;99.90;;;;;;5082051;28;20031;-80
2022/12/14 02:57:42;;;;;;;59.13;24.55;;;-5.40;99.90;;;;;;5036021;28;20558;-80
2022/12/14 03:00:09;;;;;;;55.75;24.15;;;-5.30;99.90;;;;;;5034832;28;20037;-80
2022/12/14 03:02:38;;;;;;;44.90;20.08;;;-5.40;99.90;;;;;;5037221;28;20033;-80
2022/12/14 03:05:04;;;;;;;43.72;18.80;;;-5.40;99.90;;;;;;5035204;28;20449;-80
2022/12/14 03:07:39;;;;;;;35.83;16.08;;;-5.40;99.90;;;;;;5034696;28;20045;-80
2022/12/14 03:10:13;;;;;;;36.15;15.52;;;-5.30;99.90;;;;;;5038654;28;20037;-80
2022/12/14 03:12:43;;;;;;;30.48;15.07;;;-5.20;99.90;;;;;;5045723;28;20713;-80
2022/12/14 03:15:11;;;;;;;30.92;14.25;;;-5.10;99.90;;;;;;5040204;28;20067;-80
2022/12/14 03:17:38;;;;;;;29.05;13.52;;;-5.00;99.90;;;;;;5038275;28;20036;-80
2022/12/14 03:20:14;;;;;;;30.73;14.32;;;-5.00;99.90;;;;;;5039144;28;20510;-80
2022/12/14 03:22:58;;;;;;;32.90;15.13;;;-5.00;99.90;;;;;;5037542;28;20057;-80
2022/12/14 03:25:39;;;;;;;36.88;16.67;;;-5.00;99.90;;;;;;5039398;28;20124;-80
2022/12/14 03:28:13;;;;;;;37.35;15.95;;;-5.10;99.90;;;;;;5050209;28;20097;-80
2022/12/14 03:30:42;;;;;;;35.17;16.00;;;-5.10;99.90;;;;;;5076315;28;20096;-80
2022/12/14 03:33:16;;;;;;;38.97;17.08;;;-5.20;99.90;;;;;;5079913;28;20106;-81
2022/12/14 03:35:48;;;;;;;33.80;16.02;;;-5.10;99.90;;;;;;5085359;28;20508;-79
2022/12/14 03:38:27;;;;;;;28.70;12.63;;;-5.10;99.90;;;;;;5086718;28;20627;-80
2022/12/14 03:40:56;;;;;;;37.78;16.98;;;-5.00;99.90;;;;;;5084384;28;20053;-79
2022/12/14 03:43:24;;;;;;;41.83;17.52;;;-4.90;99.90;;;;;;5085974;28;20521;-80
2022/12/14 03:46:07;;;;;;;39.92;18.02;;;-4.90;99.90;;;;;;5078439;28;20044;-80
2022/12/14 03:48:45;;;;;;;41.85;18.45;;;-4.80;99.90;;;;;;5074648;28;20032;-81
2022/12/14 03:51:36;;;;;;;45.63;19.80;;;-4.80;99.90;;;;;;5077154;28;20031;-80
2022/12/14 03:54:04;;;;;;;57.08;22.88;;;-4.70;99.90;;;;;;5067790;28;20073;-80
2022/12/14 03:56:37;;;;;;;63.72;25.20;;;-4.50;99.90;;;;;;5077544;28;20127;-80
2022/12/14 03:59:15;;;;;;;;;;;-4.40;99.90;;;;;;5082353;28;20074;-80
2022/12/14 04:02:02;;;;;;;63.08;25.90;;;-4.30;99.90;;;;;;5075887;28;19923;-81
2022/12/14 04:04:49;;;;;;;61.58;25.48;;;-4.20;99.90;;;;;;5074165;28;20052;-81
2022/12/14 04:07:33;;;;;;;59.55;25.80;;;-4.20;99.90;;;;;;5082743;28;20062;-80
2022/12/14 04:18:55;;;;;;;57.80;25.52;;;-4.10;99.90;;;;;;5078970;28;20031;-81
2022/12/14 04:18:58;;;;;;;53.72;23.42;;;-3.90;99.90;;;;;;5090021;28;20113;-80
2022/12/14 04:22:03;;;;;;;60.42;25.60;;;-3.90;99.90;;;;;;5080736;28;20020;-80
2022/12/14 04:27:39;;;;;;;64.15;27.63;;;-4.00;99.90;;;;;;5081212;28;20038;-81
2022/12/14 04:30:07;;;;;;;65.97;27.55;;;-4.10;99.90;;;;;;5093621;28;20051;-80
2022/12/14 04:32:38;;;;;;;62.20;27.15;;;-4.10;99.90;;;;;;5077902;28;20105;-81
2022/12/14 04:35:17;;;;;;;65.10;26.60;;;-4.10;99.90;;;;;;5078687;28;20035;-81
2022/12/14 04:37:48;;;;;;;60.03;26.40;;;-4.00;99.90;;;;;;5089091;28;20477;-81
2022/12/14 04:40:20;;;;;;;59.75;25.50;;;-4.00;99.90;;;;;;5081067;28;20066;-80
2022/12/14 04:42:58;;;;;;;59.38;25.30;;;-4.00;99.90;;;;;;5073584;28;20035;-80
2022/12/14 04:45:42;;;;;;;58.28;26.17;;;-4.00;99.90;;;;;;5074280;28;20044;-80
2022/12/14 04:48:35;;;;;;;51.97;23.98;;;-3.80;99.90;;;;;;5085479;28;20413;-80
2022/12/14 04:51:13;;;;;;;54.03;22.90;;;-3.80;99.90;;;;;;5081929;28;20500;-80
2022/12/14 04:53:43;;;;;;;50.25;22.85;;;-3.90;99.90;;;;;;5073850;28;20074;-81
2022/12/14 04:56:17;;;;;;;51.20;22.60;;;-3.90;99.90;;;;;;5084085;28;20090;-80
2022/12/14 04:58:43;;;;;;;49.17;23.00;;;-3.90;99.90;;;;;;5071302;28;20482;-79
2022/12/14 05:01:33;;;;;;;55.28;25.05;;;-3.90;99.90;;;;;;5076342;28;20122;-80
2022/12/14 05:04:20;;;;;;;50.50;22.38;;;-4.00;99.90;;;;;;5082010;28;20363;-80
2022/12/14 05:07:05;;;;;;;51.90;22.95;;;-4.00;99.90;;;;;;5076883;28;20154;-81
2022/12/14 05:09:44;;;;;;;46.35;22.45;;;-4.00;99.90;;;;;;5079368;28;20039;-80
2022/12/14 05:12:19;;;;;;;45.22;21.02;;;-4.00;99.90;;;;;;5087798;28;20042;-80
2022/12/14 05:15:03;;;;;;;45.47;21.13;;;-4.00;99.90;;;;;;5074688;28;20032;-80
2022/12/14 05:17:28;;;;;;;41.67;19.20;;;-4.00;99.90;;;;;;5084288;28;20123;-80
2022/12/14 05:19:54;;;;;;;44.67;20.27;;;-4.10;99.90;;;;;;5089272;28;20106;-80
2022/12/14 05:22:20;;;;;;;40.65;19.67;;;-4.20;99.90;;;;;;5081747;28;20666;-80
2022/12/14 05:24:46;;;;;;;43.13;20.40;;;-4.40;99.90;;;;;;5090454;28;20039;-80
2022/12/14 05:27:12;;;;;;;42.30;19.67;;;-4.50;99.90;;;;;;5095095;28;20433;-80
2022/12/14 05:29:37;;;;;;;43.33;19.80;;;-4.50;99.90;;;;;;5085260;28;20024;-80
2022/12/14 05:32:03;;;;;;;44.08;19.60;;;-4.50;99.90;;;;;;5084301;28;20029;-79
2022/12/14 05:34:29;;;;;;;39.00;19.33;;;-4.40;99.90;;;;;;5082448;28;20035;-80
2022/12/14 05:36:55;;;;;;;41.90;19.33;;;-4.40;99.90;;;;;;5079145;28;20085;-80
2022/12/14 05:39:21;;;;;;;39.67;18.73;;;-4.30;99.90;;;;;;5082782;28;20043;-80
2022/12/14 05:41:46;;;;;;;36.83;17.95;;;-4.30;99.90;;;;;;5094148;28;20203;-80
2022/12/14 05:44:12;;;;;;;36.63;17.48;;;-4.30;99.90;;;;;;5085405;28;20028;-80
2022/12/14 05:46:38;;;;;;;35.13;17.13;;;-4.40;99.90;;;;;;5080313;28;20032;-79
2022/12/14 05:49:04;;;;;;;33.88;15.75;;;-4.40;99.90;;;;;;5081082;28;20020;-80
2022/12/14 05:51:30;;;;;;;30.35;15.18;;;-4.40;99.90;;;;;;5088196;28;20165;-80
2022/12/14 05:53:57;;;;;;;30.88;14.70;;;-4.40;99.90;;;;;;5087788;28;20032;-79
2022/12/14 05:56:22;;;;;;;31.08;14.55;;;-4.30;99.90;;;;;;5078949;28;20499;-80
2022/12/14 05:58:49;;;;;;;33.55;15.00;;;-4.30;99.90;;;;;;5074103;28;20032;-78
2022/12/14 06:01:14;;;;;;;28.38;13.68;;;-4.30;99.90;;;;;;5079139;28;20213;-79
2022/12/14 06:03:40;;;;;;;27.08;13.55;;;-4.30;99.90;;;;;;5074619;28;20028;-79
2022/12/14 06:06:08;;;;;;;27.98;14.48;;;-4.30;99.90;;;;;;5067379;28;20122;-80
2022/12/14 06:08:42;;;;;;;30.17;13.55;;;-4.40;99.90;;;;;;5063498;28;20464;-79
2022/12/14 06:11:11;;;;;;;28.15;13.57;;;-4.40;99.90;;;;;;5085707;28;20085;-79
2022/12/14 06:13:38;;;;;;;29.15;14.43;;;-4.30;99.90;;;;;;5079040;28;20023;-79
2022/12/14 06:16:19;;;;;;;27.83;13.43;;;-4.20;99.90;;;;;;5071223;28;20397;-79
2022/12/14 06:18:47;;;;;;;38.13;18.20;;;-4.10;99.90;;;;;;5071228;28;20040;-79
2022/12/14 06:21:14;;;;;;;36.58;16.38;;;-4.00;99.90;;;;;;5072213;28;20051;-80
2022/12/14 06:23:40;;;;;;;36.05;16.80;;;-4.00;99.90;;;;;;5078292;28;20024;-79
2022/12/14 06:26:08;;;;;;;36.63;17.35;;;-3.90;99.90;;;;;;5076388;28;20058;-80
2022/12/14 06:28:34;;;;;;;38.25;18.35;;;-3.90;99.90;;;;;;5075756;28;20326;-80
2022/12/14 06:31:00;;;;;;;45.10;20.42;;;-3.80;99.90;;;;;;5081870;28;20446;-79
2022/12/14 06:33:26;;;;;;;41.20;19.98;;;-3.80;99.90;;;;;;5074778;28;20064;-80
2022/12/14 06:35:52;;;;;;;33.65;17.48;;;-3.70;99.90;;;;;;5076258;28;20074;-80
2022/12/14 06:38:17;;;;;;;35.83;18.13;;;-3.70;99.90;;;;;;5078658;28;20047;-78
2022/12/14 06:40:43;;;;;;;35.75;17.15;;;-3.80;99.90;;;;;;5078226;28;20024;-79
2022/12/14 06:43:09;;;;;;;31.83;16.25;;;-3.80;99.90;;;;;;5081707;28;20032;-79
2022/12/14 06:45:35;;;;;;;32.38;15.85;;;-3.80;99.90;;;;;;5076058;28;20048;-79
2022/12/14 06:48:00;;;;;;;35.75;16.17;;;-3.90;99.90;;;;;;5082134;28;20616;-79
2022/12/14 06:50:27;;;;;;;36.42;15.73;;;-3.90;99.90;;;;;;5082661;28;20111;-79
2022/12/14 06:52:56;;;;;;;31.42;15.23;;;-3.90;99.90;;;;;;5081257;28;20097;-80
2022/12/14 06:55:23;;;;;;;32.20;14.73;;;-3.90;99.90;;;;;;5079545;28;20115;-79
2022/12/14 06:57:50;;;;;;;33.55;16.58;;;-3.90;99.90;;;;;;5084607;28;20439;-79
2022/12/14 07:00:23;;;;;;;31.95;15.30;;;-3.80;99.90;;;;;;5080391;28;20028;-79
2022/12/14 07:02:49;;;;;;;;;;;-3.80;99.90;;;;;;5073613;28;20398;-79
2022/12/14 07:05:15;;;;;;;34.50;16.60;;;-3.70;99.90;;;;;;5081088;28;19908;-79
2022/12/14 07:07:42;;;;;;;36.17;16.15;;;-3.70;99.90;;;;;;5083031;28;20031;-79
2022/12/14 07:10:09;;;;;;;35.80;16.85;;;-3.70;99.90;;;;;;5082414;28;20114;-79
2022/12/14 07:12:35;;;;;;;37.10;16.42;;;-3.70;99.90;;;;;;5074877;28;20344;-79
2022/12/14 07:15:02;;;;;;;31.80;15.13;;;-3.60;99.90;;;;;;5081321;28;20040;-79
2022/12/14 07:17:27;;;;;;;37.28;17.48;;;-3.60;99.90;;;;;;5077385;28;20036;-79
2022/12/14 07:19:53;;;;;;;33.85;16.02;;;-3.70;99.90;;;;;;5080537;28;20023;-78
2022/12/14 07:22:19;;;;;;;32.80;15.85;;;-3.60;99.90;;;;;;5079584;28;20077;-78
2022/12/14 07:24:45;;;;;;;32.95;15.93;;;-3.60;99.90;;;;;;5083439;28;20027;-78
2022/12/14 07:27:10;;;;;;;35.15;16.83;;;-3.60;99.90;;;;;;5080379;28;20024;-79
2022/12/14 07:29:36;;;;;;;36.75;17.77;;;-3.60;99.90;;;;;;5072363;28;20048;-78
2022/12/14 07:32:02;;;;;;;34.38;16.30;;;-3.50;99.90;;;;;;5075746;28;20023;-78
2022/12/14 07:34:28;;;;;;;31.23;15.25;;;-3.50;99.90;;;;;;5080188;28;20028;-79
2022/12/14 07:36:54;;;;;;;31.73;15.43;;;-3.50;99.90;;;;;;5080561;28;20039;-78
2022/12/14 07:39:21;;;;;;;32.58;16.85;;;-3.40;99.90;;;;;;5079152;28;20016;-79
2022/12/14 07:41:49;;;;;;;33.47;17.38;;;-3.40;99.90;;;;;;5082065;28;20039;-81
2022/12/14 07:44:16;;;;;;;35.63;16.05;;;-3.30;99.90;;;;;;5076283;28;20060;-80
2022/12/14 07:46:41;;;;;;;32.15;15.35;;;-3.40;99.90;;;;;;5075427;28;20398;-80
2022/12/14 07:49:08;;;;;;;32.95;15.88;;;-3.30;99.90;;;;;;5076998;28;20027;-80
2022/12/14 07:51:36;;;;;;;30.30;15.57;;;-3.40;99.90;;;;;;5082411;28;20039;-80
2022/12/14 07:54:03;;;;;;;30.48;15.35;;;-3.40;99.90;;;;;;5079909;28;20034;-80
2022/12/14 07:56:33;;;;;;;27.60;14.25;;;-3.50;99.90;;;;;;5079901;28;20055;-81
2022/12/14 07:59:00;;;;;;;31.20;15.85;;;-3.50;99.90;;;;;;5077194;28;20075;-81
2022/12/14 08:01:28;;;;;;;32.30;15.63;;;-3.50;99.90;;;;;;5070207;28;20493;-77
2022/12/14 08:04:10;;;;;;;31.50;15.50;;;-3.50;99.90;;;;;;5072211;28;20032;-77
2022/12/14 08:06:36;;;;;;;30.65;15.48;;;-3.60;99.90;;;;;;5068952;28;20382;-77
2022/12/14 08:09:03;;;;;;;30.88;14.63;;;-3.70;99.90;;;;;;5081055;28;20031;-78
2022/12/14 08:11:29;;;;;;;28.15;14.15;;;-3.80;99.90;;;;;;5074867;28;20031;-77
2022/12/14 08:13:57;;;;;;;28.70;14.48;;;-3.80;99.90;;;;;;5080278;28;20405;-78
2022/12/14 08:16:24;;;;;;;29.48;15.75;;;-3.90;99.90;;;;;;5085619;28;20028;-78
2022/12/14 08:18:53;;;;;;;30.92;15.95;;;-3.90;99.90;;;;;;5086457;28;20089;-77
2022/12/14 08:21:20;;;;;;;29.05;14.65;;;-3.80;99.90;;;;;;5094209;28;20024;-79
2022/12/14 08:23:47;;;;;;;28.25;14.88;;;-3.80;99.90;;;;;;5081876;28;20021;-79
2022/12/14 08:26:13;;;;;;;34.80;16.17;;;-3.80;99.90;;;;;;5074747;28;20028;-79
2022/12/14 08:28:39;;;;;;;35.90;16.98;;;-3.80;99.90;;;;;;5075796;28;20021;-79
2022/12/14 08:31:10;;;;;;;33.88;16.10;;;-3.70;99.90;;;;;;5084275;28;20043;-78
2022/12/14 08:33:37;;;;;;;30.35;14.38;;;-3.70;99.90;;;;;;5080157;28;20077;-78
2022/12/14 08:36:21;;;;;;;29.73;14.93;;;-3.80;99.90;;;;;;5098779;28;20270;-77
2022/12/14 08:38:52;;;;;;;26.77;13.73;;;-3.80;99.90;;;;;;5086102;28;20028;-77
2022/12/14 08:41:18;;;;;;;31.85;14.32;;;-3.70;99.90;;;;;;5085464;28;20028;-76
2022/12/14 08:43:43;;;;;;;29.00;15.20;;;-3.60;99.90;;;;;;5077761;28;20100;-85
2022/12/14 08:46:09;;;;;;;28.73;15.10;;;-3.60;99.90;;;;;;5083686;28;20067;-82
2022/12/14 08:48:35;;;;;;;29.23;13.95;;;-3.60;99.90;;;;;;5082156;28;20046;-83
2022/12/14 08:51:04;;;;;;;28.83;14.55;;;-3.60;99.90;;;;;;5078617;28;20153;-80
2022/12/14 08:53:30;;;;;;;29.65;14.88;;;-3.50;99.90;;;;;;5081367;28;20458;-84
2022/12/14 08:55:55;;;;;;;27.33;14.77;;;-3.50;99.90;;;;;;5083537;28;20493;-84
2022/12/14 08:58:21;;;;;;;27.23;14.23;;;-3.50;99.90;;;;;;5080826;28;20032;-85
2022/12/14 09:00:47;;;;;;;24.15;13.23;;;-3.50;99.90;;;;;;5081594;28;20362;-84
2022/12/14 09:03:12;;;;;;;25.85;14.10;;;-3.40;99.90;;;;;;5088694;28;20028;-86
2022/12/14 09:05:38;;;;;;;26.92;13.35;;;-3.40;99.90;;;;;;5083487;28;20481;-85
2022/12/14 09:08:04;;;;;;;28.30;14.10;;;-3.30;99.90;;;;;;5082882;28;20032;-84
2022/12/14 09:10:30;;;;;;;24.98;13.13;;;-3.20;99.90;;;;;;5072853;28;20027;-78
2022/12/14 09:12:57;;;;;;;25.42;13.20;;;-3.20;99.90;;;;;;5087626;28;20454;-83
2022/12/14 09:15:24;;;;;;;104.60;45.22;;;-3.20;99.90;;;;;;5088798;28;20030;-84
2022/12/14 09:17:49;;;;;;;68.13;32.47;;;-3.10;99.90;;;;;;5082797;28;20032;-83
2022/12/14 09:20:16;;;;;;;36.40;18.73;;;-3.10;99.90;;;;;;5087470;28;20023;-83
2022/12/14 09:22:41;;;;;;;31.08;15.80;;;-3.00;99.90;;;;;;5077291;28;20032;-83
2022/12/14 09:25:08;;;;;;;29.02;16.67;;;-2.90;99.90;;;;;;5077371;28;20032;-83
2022/12/14 09:27:34;;;;;;;38.00;19.42;;;-2.80;99.90;;;;;;5067746;28;20743;-83
2022/12/14 09:29:59;;;;;;;45.45;22.17;;;-2.70;99.90;;;;;;5065551;28;20024;-84
2022/12/14 09:32:27;;;;;;;43.92;22.25;;;-2.60;99.90;;;;;;5068698;28;20027;-83
2022/12/14 09:34:53;;;;;;;46.83;23.13;;;-2.60;99.90;;;;;;5065865;28;20024;-82
2022/12/14 09:37:19;;;;;;;41.50;22.05;;;-2.50;99.90;;;;;;5066063;28;20540;-85
2022/12/14 09:39:44;;;;;;;43.80;22.23;;;-2.40;99.90;;;;;;5067616;28;20027;-84
2022/12/14 09:42:34;;;;;;;45.45;23.08;;;-2.30;99.90;;;;;;5074465;28;20085;-87
2022/12/14 09:45:16;;;;;;;42.45;22.02;;;-2.20;99.90;;;;;;5070485;28;20068;-86
2022/12/14 09:47:54;;;;;;;37.22;19.55;;;-2.20;99.90;;;;;;5085144;28;20034;-86
2022/12/14 09:50:21;;;;;;;39.40;19.90;;;-2.10;99.90;;;;;;5088760;28;20104;-86
2022/12/14 09:52:51;;;;;;;37.70;19.30;;;-2.00;99.90;;;;;;5081036;28;20036;-85
2022/12/14 09:55:40;;;;;;;35.55;19.65;;;-2.00;99.90;;;;;;5085785;28;20033;-86
2022/12/14 09:58:21;;;;;;;43.45;24.70;;;-1.90;99.90;;;;;;5081628;28;20032;-83
2022/12/14 10:01:14;;;;;;;48.50;28.02;;;-1.90;99.90;;;;;;5081522;28;20027;-86
2022/12/14 10:03:54;;;;;;;41.90;24.20;;;-1.80;99.90;;;;;;5078160;28;20493;-85
2022/12/14 10:06:36;;;;;;;37.63;21.10;;;-1.80;99.90;;;;;;5078296;28;20029;-83
2022/12/14 10:09:30;;;;;;;38.33;21.40;;;-1.80;99.90;;;;;;5080130;28;20035;-81
2022/12/14 10:12:20;;;;;;;37.83;19.95;;;-1.80;99.90;;;;;;5079617;28;20028;-84
2022/12/14 10:15:07;;;;;;;35.60;18.95;;;-1.70;99.90;;;;;;5079364;28;20486;-81
2022/12/14 10:18:04;;;;;;;35.08;19.77;;;-1.70;99.90;;;;;;5071362;28;20031;-82
2022/12/14 10:20:53;;;;;;;33.22;17.90;;;-1.60;99.90;;;;;;5071040;28;20020;-82
2022/12/14 10:23:22;;;;;;;33.40;18.10;;;-1.60;99.90;;;;;;5074553;28;20028;-80
2022/12/14 10:25:53;;;;;;;30.88;17.02;;;-1.60;99.90;;;;;;5077774;28;20051;-82
2022/12/14 10:28:43;;;;;;;31.75;16.63;;;-1.60;99.90;;;;;;5074706;28;20088;-81
2022/12/14 10:31:15;;;;;;;30.35;16.13;;;-1.60;99.90;;;;;;5079971;28;20111;-81
2022/12/14 10:33:45;;;;;;;32.90;17.17;;;-1.70;99.90;;;;;;5075708;28;20081;-80
2022/12/14 10:36:29;;;;;;;29.48;15.82;;;-1.70;99.90;;;;;;5078952;28;20070;-82
2022/12/14 10:38:57;;;;;;;30.80;16.33;;;-1.70;99.90;;;;;;5089007;28;20496;-83
2022/12/14 10:41:51;;;;;;;28.13;15.35;;;-1.70;99.90;;;;;;5098504;28;20024;-83
2022/12/14 10:44:58;;;;;;;32.00;16.55;;;-1.70;99.90;;;;;;5080284;28;20126;-85
2022/12/14 10:47:44;;;;;;;30.05;16.15;;;-1.70;99.90;;;;;;5075455;28;20032;-84
2022/12/14 10:50:20;;;;;;;25.55;15.10;;;-1.70;99.90;;;;;;5084660;28;20481;-83
2022/12/14 10:52:49;;;;;;;30.23;16.52;;;-1.70;99.90;;;;;;5087344;28;20031;-84
2022/12/14 10:55:29;;;;;;;28.98;15.45;;;-1.60;99.90;;;;;;5072936;28;20012;-84
2022/12/14 10:57:55;;;;;;;26.15;14.77;;;-1.60;99.90;;;;;;5077287;28;20020;-84
2022/12/14 11:00:21;;;;;;;26.02;14.45;;;-1.60;99.90;;;;;;5076264;28;20576;-84
2022/12/14 11:02:53;;;;;;;28.90;16.13;;;-1.50;99.90;;;;;;5076670;28;20015;-84
2022/12/14 11:05:34;;;;;;;26.30;14.93;;;-1.50;99.90;;;;;;5082084;28;20563;-85
2022/12/14 11:08:00;;;;;;;28.63;14.45;;;-1.50;99.90;;;;;;5071292;28;20531;-84
2022/12/14 11:10:29;;;;;;;25.60;14.88;;;-1.40;99.90;;;;;;5085401;28;20028;-83
2022/12/14 11:13:05;;;;;;;29.35;16.52;;;-1.40;99.90;;;;;;5070023;28;20481;-81
2022/12/14 11:15:45;;;;;;;29.27;16.50;;;-1.30;99.90;;;;;;5074703;28;20028;-82
2022/12/14 11:18:11;;;;;;;31.50;16.30;;;-1.30;99.90;;;;;;5073934;28;20074;-77
2022/12/14 11:20:48;;;;;;;30.35;16.25;;;-1.20;99.90;;;;;;5079308;28;20118;-82
2022/12/14 11:23:19;;;;;;;29.48;16.40;;;-1.30;99.90;;;;;;5077992;28;20020;-83
2022/12/14 11:25:49;;;;;;;28.95;15.98;;;-1.30;99.90;;;;;;5075018;28;20662;-83
2022/12/14 11:28:37;;;;;;;29.98;16.55;;;-1.30;99.90;;;;;;5081482;28;20030;-82
2022/12/14 11:31:06;;;;;;;31.20;16.75;;;-1.30;99.90;;;;;;5080035;28;20030;-83
2022/12/14 11:33:49;;;;;;;27.83;15.93;;;-1.30;99.90;;;;;;5078569;28;20123;-83
2022/12/14 11:36:26;;;;;;;31.08;16.80;;;-1.30;99.90;;;;;;5067971;28;20647;-83
2022/12/14 11:39:01;;;;;;;33.28;18.00;;;-1.30;99.90;;;;;;5078549;28;20039;-83
2022/12/14 11:41:33;;;;;;;32.22;17.42;;;-1.20;99.90;;;;;;5074640;28;20025;-83
2022/12/14 11:44:20;;;;;;;32.53;17.80;;;-1.10;99.90;;;;;;5068904;28;20020;-83
2022/12/14 11:46:57;;;;;;;30.75;16.88;;;-1.10;99.90;;;;;;5079811;28;20070;-82
2022/12/14 11:49:38;;;;;;;28.63;16.58;;;-1.20;99.90;;;;;;5081560;28;20537;-83
2022/12/14 11:52:04;;;;;;;30.60;16.58;;;-1.10;99.90;;;;;;5084163;28;20028;-83
2022/12/14 11:54:41;;;;;;;31.42;17.33;;;-1.10;99.90;;;;;;5073863;28;20024;-82
2022/12/14 11:57:09;;;;;;;33.25;17.63;;;-1.00;99.90;;;;;;5081787;28;20035;-82
2022/12/14 11:59:40;;;;;;;31.48;17.73;;;-0.90;99.90;;;;;;5078810;28;20039;-82
2022/12/14 12:02:20;;;;;;;30.85;17.17;;;-0.80;99.90;;;;;;5081683;28;20024;-82
2022/12/14 12:04:52;;;;;;;32.83;17.13;;;-0.80;99.90;;;;;;5073971;28;20095;-81
2022/12/14 12:07:53;;;;;;;31.85;18.05;;;-0.80;99.90;;;;;;5078586;28;20029;-81
2022/12/14 12:10:31;;;;;;;32.38;18.38;;;-0.70;99.90;;;;;;5071207;28;20031;-78
2022/12/14 12:13:00;;;;;;;32.70;18.23;;;-0.70;99.90;;;;;;4717031;28;9999717;-81
2022/12/14 12:15:36;;;;;;;32.92;18.13;;;-0.60;99.90;;;;;;5069590;28;20032;-83
2022/12/14 12:18:21;;;;;;;32.03;17.85;;;-0.60;99.90;;;;;;5078944;28;20037;-83
2022/12/14 12:21:11;;;;;;;29.52;17.17;;;-0.50;99.90;;;;;;5079379;28;20664;-84
2022/12/14 12:23:45;;;;;;;28.08;16.13;;;-0.50;99.90;;;;;;5069502;28;20182;-80
2022/12/14 12:26:22;;;;;;;28.15;14.77;;;-0.40;99.90;;;;;;5072326;28;20027;-82
2022/12/14 12:29:14;;;;;;;33.88;16.60;;;-0.40;99.90;;;;;;5073854;28;20120;-86
2022/12/14 12:32:02;;;;;;;31.92;16.02;;;-0.30;99.90;;;;;;5062460;28;20093;-74
2022/12/14 12:34:37;;;;;;;28.48;15.35;;;-0.30;99.90;;;;;;5075165;28;20032;-74
2022/12/14 12:37:13;;;;;;;28.85;15.40;;;-0.30;99.90;;;;;;5073526;28;20044;-78
2022/12/14 12:39:43;;;;;;;28.92;15.55;;;-0.30;99.90;;;;;;5068037;28;20068;-78
2022/12/14 12:42:43;;;;;;;27.48;15.25;;;-0.30;99.90;;;;;;5074406;28;20112;-87
2022/12/14 12:45:21;;;;;;;24.30;14.43;;;-0.30;99.90;;;;;;5074175;28;20036;-77
2022/12/14 12:47:53;;;;;;;27.40;14.55;;;-0.20;99.90;;;;;;5072455;28;20031;-79
2022/12/14 12:50:25;;;;;;;24.17;11.57;;;-0.20;99.90;;;;;;5079317;28;20802;-80
2022/12/14 12:53:02;;;;;;;25.70;14.63;;;-0.10;99.90;;;;;;5074281;28;20565;-81
2022/12/14 12:55:30;;;;;;;23.50;13.88;;;-0.10;99.90;;;;;;5077493;28;20089;-81
2022/12/14 12:57:58;;;;;;;23.35;13.20;;;0.00;99.90;;;;;;5078312;28;20322;-81
2022/12/14 13:00:26;;;;;;;23.58;13.57;;;-0.10;99.90;;;;;;5076006;28;20686;-81
2022/12/14 13:03:19;;;;;;;24.65;14.25;;;-0.10;99.90;;;;;;5072232;28;20024;-79